Airfield :







YOU CAN JOIN US ON...

 
LOGIN :

Register | Disclaimer

   EN    FR    IT 

 









Legend :    VFR   Marginal VFR   IFR   Intensive IFR   Very Intensive IFR
Visi :
Ceiling :
>= 8 km
>= 3000ft
5 to 8 km
1000 to 3000 ft
1500m to 5 km
500 to 1000 ft
800 to 1500m
200 to 500 ft
< 800m
< 200 ft
Symbols :   Thunderstorms  Fog  Heavy snow  Heavy precipitations  Wind > 20 kt






- Airport Elevation : 199 ft
- IATA code : YRQ


CYRQ - Trois-Rivières

CURRENT METAR :
  • 021200Z AUTO VRB02KT 9SM FEW150 SCT210 M06/M08 A3042 RMK SLP306

EXPIRED METARs :
  • 021100Z AUTO 26003KT 9SM SCT180 M05/M08 A3040 RMK SLP301
  • 021000Z AUTO 22006KT 9SM OVC150 M05/M08 A3037 RMK SLP290

TAF TAF CYRQ
Valid from the 02 at 08:00 until the 02 at 20:00 UTC


020740Z 0208/0220 23006KT P6SM FEW040
FM021400 20008KT P6SM FEW040 BKN140
FM021800 20008KT P6SM SCT025 BKN120
TEMPO 0218/0220 BKN020 BKN120 RMK FCST BASED ON AUTO OBS. NXT FCST BY 021400Z
CZUL FIR / North America



MET'MAP, your aeronautical weather chart ! - Copyright ORBIFLY December 2007 - Disclaimer

ORBIFLY MET'MAP TEAM :

Programming & Development : Alexandra Zaïnal
Original concept : Baudouin d'Aumeries
Technical & hardware support : Manuel Goepfert
Assistance : Marc-Olivier Méhu




SOURCES & CREDITS :

   NOAA